Time;durP1;ratioP1;P1;durP2;ratioP2;P2;SDS_P1;SDS_P2;PMS_P1;PMS_P2;Temp;Humidity;BMP_temperature;BMP_pressure;BME280_temperature;BME280_humidity;BME280_pressure;Samples;Min_cycle;Max_cycle;Signal;HPM_P1;HPM_P2
2022/03/11 00:00:45;;;;;;;7.30;3.07;;;-0.50;78.10;;;;;;5034922;28;20472;-65
2022/03/11 00:03:11;;;;;;;6.53;3.50;;;-0.60;77.70;;;;;;5037408;28;20436;-65
2022/03/11 00:05:37;;;;;;;7.00;3.10;;;-0.70;78.40;;;;;;5046617;28;20436;-63
2022/03/11 00:08:03;;;;;;;7.50;3.37;;;-0.80;78.70;;;;;;5042616;28;20889;-65
2022/03/11 00:10:29;;;;;;;5.77;2.77;;;-0.90;79.20;;;;;;5039686;28;20479;-65
2022/03/11 00:12:55;;;;;;;6.40;3.03;;;-0.90;79.50;;;;;;5036662;28;20219;-64
2022/03/11 00:15:21;;;;;;;5.63;2.77;;;-0.90;80.30;;;;;;5026809;28;20473;-65
2022/03/11 00:17:47;;;;;;;6.33;2.50;;;-0.80;79.30;;;;;;5041100;28;20630;-66
2022/03/11 00:20:19;;;;;;;8.27;2.97;;;-0.80;79.20;;;;;;5028802;28;20225;-66
2022/03/11 00:22:45;;;;;;;7.13;2.60;;;-0.80;79.10;;;;;;5040945;28;20182;-65
2022/03/11 00:25:11;;;;;;;9.77;3.33;;;-0.80;78.90;;;;;;5043855;28;20416;-66
2022/03/11 00:27:36;;;;;;;6.57;3.17;;;-0.90;79.00;;;;;;5038571;28;20452;-64
2022/03/11 00:30:03;;;;;;;5.33;3.00;;;-0.90;79.10;;;;;;5040358;28;20864;-64
2022/03/11 00:32:28;;;;;;;7.60;3.10;;;-1.00;79.90;;;;;;5037225;28;20930;-65
2022/03/11 00:34:54;;;;;;;4.90;2.67;;;-1.00;80.00;;;;;;5036950;28;20534;-64
2022/03/11 00:37:19;;;;;;;5.60;2.70;;;-0.90;80.00;;;;;;5038184;28;20667;-64
2022/03/11 00:39:45;;;;;;;7.50;2.60;;;-0.90;79.70;;;;;;5037769;28;20649;-64
2022/03/11 00:42:11;;;;;;;9.13;2.53;;;-0.90;80.10;;;;;;5029534;28;20197;-64
2022/03/11 00:44:38;;;;;;;10.20;3.47;;;-0.90;80.00;;;;;;5039913;28;20731;-64
2022/03/11 00:47:04;;;;;;;6.70;3.13;;;-1.00;80.00;;;;;;5032322;28;20197;-64
2022/03/11 00:49:29;;;;;;;6.30;2.87;;;-1.00;80.40;;;;;;5038300;28;21070;-64
2022/03/11 00:51:55;;;;;;;6.30;2.60;;;-1.00;80.40;;;;;;5044384;28;20836;-62
2022/03/11 00:54:20;;;;;;;5.27;2.83;;;-1.00;80.40;;;;;;5040903;28;20260;-63
2022/03/11 00:56:46;;;;;;;3.97;2.37;;;-1.00;80.70;;;;;;5042140;28;20820;-63
2022/03/11 00:59:12;;;;;;;6.37;2.60;;;-1.00;80.10;;;;;;5037466;28;20220;-65
2022/03/11 01:01:37;;;;;;;6.67;2.60;;;-0.90;79.80;;;;;;5040717;28;20313;-64
2022/03/11 01:04:03;;;;;;;8.47;3.40;;;-0.90;80.20;;;;;;5038458;28;20218;-64
2022/03/11 01:06:28;;;;;;;9.80;3.90;;;-0.90;80.30;;;;;;5041903;28;20198;-65
2022/03/11 01:08:54;;;;;;;7.40;3.83;;;-1.00;80.30;;;;;;5035655;28;20218;-65
2022/03/11 01:11:20;;;;;;;4.70;2.50;;;-1.00;80.50;;;;;;5032014;28;20277;-64
2022/03/11 01:13:45;;;;;;;6.50;3.23;;;-1.10;80.70;;;;;;5036079;28;20556;-64
2022/03/11 01:16:11;;;;;;;6.93;2.90;;;-1.10;80.50;;;;;;5034900;28;20228;-64
2022/03/11 01:18:37;;;;;;;8.83;3.50;;;-1.10;80.70;;;;;;5030311;28;20213;-65
2022/03/11 01:21:03;;;;;;;6.97;2.93;;;-1.10;80.60;;;;;;5041856;28;20200;-64
2022/03/11 01:23:29;;;;;;;6.40;3.20;;;-1.10;80.50;;;;;;5038562;28;20285;-65
2022/03/11 01:25:54;;;;;;;8.30;2.53;;;-1.10;80.40;;;;;;5037570;28;20514;-64
2022/03/11 01:28:20;;;;;;;5.90;3.03;;;-1.20;80.40;;;;;;5027110;28;20673;-65
2022/03/11 01:30:46;;;;;;;10.20;3.60;;;-1.30;80.70;;;;;;5031449;28;21084;-65
2022/03/11 01:33:11;;;;;;;11.47;3.00;;;-1.30;81.20;;;;;;5033999;28;20500;-66
2022/03/11 01:35:37;;;;;;;7.93;3.07;;;-1.30;81.20;;;;;;5032196;28;20225;-65
2022/03/11 01:38:03;;;;;;;5.33;2.93;;;-1.40;81.60;;;;;;5038502;28;20251;-65
2022/03/11 01:40:29;;;;;;;5.83;2.97;;;-1.40;82.00;;;;;;5019278;28;20190;-66
2022/03/11 01:42:54;;;;;;;7.53;2.47;;;-1.40;82.00;;;;;;5038255;28;20834;-65
2022/03/11 01:45:20;;;;;;;9.33;3.00;;;-1.40;82.60;;;;;;5025104;28;20951;-65
2022/03/11 01:47:45;;;;;;;6.40;2.87;;;-1.50;82.00;;;;;;5038451;28;20209;-64
2022/03/11 01:50:11;;;;;;;7.07;2.40;;;-1.50;81.90;;;;;;5032810;28;20186;-65
2022/03/11 01:52:37;;;;;;;4.20;2.43;;;-1.50;82.50;;;;;;5037272;28;20202;-64
2022/03/11 01:55:04;;;;;;;4.60;3.17;;;-1.50;82.50;;;;;;5039426;28;20194;-64
2022/03/11 01:57:35;;;;;;;5.03;3.17;;;-1.50;82.90;;;;;;5037302;28;20507;-64
2022/03/11 02:00:05;;;;;;;4.73;2.77;;;-1.40;82.70;;;;;;5035653;28;20527;-65
2022/03/11 02:02:31;;;;;;;10.20;3.60;;;-1.40;82.30;;;;;;5031887;28;20435;-65
2022/03/11 02:04:57;;;;;;;6.23;3.10;;;-1.40;82.10;;;;;;5036718;28;20420;-65
2022/03/11 02:07:23;;;;;;;7.37;3.30;;;-1.40;82.20;;;;;;5034123;28;20691;-64
2022/03/11 02:09:49;;;;;;;7.13;2.87;;;-1.50;82.70;;;;;;5034290;28;20796;-63
2022/03/11 02:12:32;;;;;;;4.93;2.77;;;-1.50;82.30;;;;;;5036120;28;20431;-62
2022/03/11 02:15:00;;;;;;;8.43;3.43;;;-1.60;82.00;;;;;;5018541;28;20273;-65
2022/03/11 02:17:25;;;;;;;6.90;3.00;;;-1.70;82.70;;;;;;5031479;28;20467;-64
2022/03/11 02:19:51;;;;;;;6.30;3.47;;;-1.70;83.40;;;;;;5035544;28;20436;-64
2022/03/11 02:22:21;;;;;;;6.67;3.03;;;-1.70;84.30;;;;;;5037611;28;20185;-64
2022/03/11 02:24:46;;;;;;;5.60;2.60;;;-1.70;83.30;;;;;;5041797;28;20182;-64
2022/03/11 02:27:12;;;;;;;6.13;2.53;;;-1.70;83.20;;;;;;5028282;28;20443;-64
2022/03/11 02:29:38;;;;;;;9.70;3.43;;;-1.60;83.80;;;;;;5036416;28;20182;-64
2022/03/11 02:32:04;;;;;;;7.80;3.13;;;-1.60;83.00;;;;;;5038070;28;20213;-64
2022/03/11 02:34:30;;;;;;;6.40;2.40;;;-1.70;82.90;;;;;;5041100;28;20268;-62
2022/03/11 02:36:55;;;;;;;9.80;3.93;;;-1.80;83.40;;;;;;5035278;28;21247;-64
2022/03/11 02:39:21;;;;;;;8.57;3.90;;;-1.80;84.40;;;;;;5028682;28;20209;-62
2022/03/11 02:41:49;;;;;;;9.33;3.20;;;-1.80;84.80;;;;;;5025262;28;20314;-63
2022/03/11 02:44:15;;;;;;;8.93;3.33;;;-1.80;84.70;;;;;;5036111;28;20261;-64
2022/03/11 02:46:41;;;;;;;7.20;3.93;;;-1.70;84.90;;;;;;5040424;28;20439;-64
2022/03/11 02:49:06;;;;;;;6.87;3.77;;;-1.70;84.50;;;;;;5035176;28;20457;-64
2022/03/11 02:51:32;;;;;;;9.67;3.63;;;-1.70;84.70;;;;;;5035049;28;20847;-63
2022/03/11 02:53:58;;;;;;;8.00;4.20;;;-1.70;84.90;;;;;;5030360;28;20654;-64
2022/03/11 02:56:23;;;;;;;8.50;3.33;;;-1.80;84.40;;;;;;5039244;28;20220;-64
2022/03/11 02:58:49;;;;;;;9.10;3.83;;;-1.80;84.80;;;;;;5040275;28;20208;-64
2022/03/11 03:01:15;;;;;;;8.10;3.70;;;-1.80;84.80;;;;;;5041284;28;20208;-64
2022/03/11 03:03:40;;;;;;;6.77;3.37;;;-1.90;84.40;;;;;;5046871;28;20186;-64
2022/03/11 03:06:06;;;;;;;11.33;3.30;;;-2.00;84.30;;;;;;5042466;28;20190;-64
2022/03/11 03:08:32;;;;;;;7.27;4.27;;;-2.00;84.80;;;;;;5043820;28;20209;-65
2022/03/11 03:10:58;;;;;;;6.67;3.33;;;-2.00;85.70;;;;;;5042013;28;20428;-64
2022/03/11 03:13:24;;;;;;;8.07;3.40;;;-2.00;86.20;;;;;;5043762;28;20190;-65
2022/03/11 03:15:49;;;;;;;7.37;3.23;;;-2.00;86.20;;;;;;5043225;28;20847;-62
2022/03/11 03:18:15;;;;;;;8.00;3.87;;;-2.10;85.80;;;;;;5034739;28;20207;-62
2022/03/11 03:20:42;;;;;;;8.87;3.43;;;-2.10;85.80;;;;;;5041204;28;20268;-65
2022/03/11 03:23:08;;;;;;;6.70;4.17;;;-2.20;86.30;;;;;;5037882;28;20519;-64
2022/03/11 03:25:34;;;;;;;6.37;3.00;;;-2.10;85.80;;;;;;5042431;28;20436;-64
2022/03/11 03:27:59;;;;;;;22.23;4.47;;;-2.10;86.20;;;;;;5035707;28;20484;-64
2022/03/11 03:30:25;;;;;;;6.97;3.20;;;-2.00;85.90;;;;;;5040843;28;20451;-65
2022/03/11 03:32:51;;;;;;;11.60;4.07;;;-2.00;85.90;;;;;;5035543;28;20969;-64
2022/03/11 03:35:16;;;;;;;7.40;3.70;;;-2.10;85.90;;;;;;5044166;28;20187;-65
2022/03/11 03:37:42;;;;;;;9.30;3.83;;;-2.20;85.80;;;;;;5042541;28;20703;-65
2022/03/11 03:40:09;;;;;;;7.80;4.50;;;-2.20;86.40;;;;;;5035960;28;20901;-64
2022/03/11 03:42:34;;;;;;;9.97;5.10;;;-2.20;86.90;;;;;;5031199;28;20672;-63
2022/03/11 03:45:00;;;;;;;11.77;5.13;;;-2.30;87.40;;;;;;5032868;28;20539;-63
2022/03/11 03:47:26;;;;;;;7.80;3.47;;;-2.30;87.30;;;;;;5041261;28;20464;-64
2022/03/11 03:49:52;;;;;;;13.20;5.00;;;-2.30;87.70;;;;;;5042015;28;20564;-63
2022/03/11 03:52:17;;;;;;;11.00;5.53;;;-2.30;88.20;;;;;;5042635;28;20186;-65
2022/03/11 03:54:44;;;;;;;10.87;5.57;;;-2.30;89.00;;;;;;5037456;28;20234;-63
2022/03/11 03:57:10;;;;;;;14.27;5.47;;;-2.30;88.80;;;;;;5020835;28;20209;-63
2022/03/11 03:59:37;;;;;;;13.97;6.00;;;-2.30;89.70;;;;;;5038159;28;20446;-63
2022/03/11 04:02:03;;;;;;;16.20;6.13;;;-2.20;90.00;;;;;;5038115;28;20442;-64
2022/03/11 04:04:29;;;;;;;18.03;6.53;;;-2.30;90.00;;;;;;5037552;28;20519;-63
2022/03/11 04:06:55;;;;;;;13.60;5.47;;;-2.30;90.20;;;;;;5036445;28;20936;-64
2022/03/11 04:09:20;;;;;;;14.13;6.07;;;-2.30;90.40;;;;;;5033246;28;20706;-65
2022/03/11 04:11:46;;;;;;;10.93;5.73;;;-2.30;90.30;;;;;;5037333;28;20338;-64
2022/03/11 04:14:12;;;;;;;20.10;5.53;;;-2.20;90.50;;;;;;5031652;28;20692;-65
2022/03/11 04:16:38;;;;;;;16.53;5.73;;;-2.20;90.60;;;;;;5033363;28;20218;-64
2022/03/11 04:19:03;;;;;;;12.33;6.03;;;-2.20;90.50;;;;;;5015891;28;20963;-64
2022/03/11 04:21:30;;;;;;;12.10;5.20;;;-2.20;90.50;;;;;;5041315;28;20182;-64
2022/03/11 04:23:55;;;;;;;16.03;6.93;;;-2.20;90.40;;;;;;5046798;28;20203;-65
2022/03/11 04:26:21;;;;;;;15.53;6.37;;;-2.10;90.50;;;;;;5033073;28;20468;-63
2022/03/11 04:28:47;;;;;;;12.30;5.80;;;-2.10;90.50;;;;;;5040091;28;20213;-64
2022/03/11 04:31:12;;;;;;;12.33;5.70;;;-2.10;90.20;;;;;;5040685;28;20273;-64
2022/03/11 04:33:40;;;;;;;16.10;6.60;;;-2.20;90.00;;;;;;5040048;28;20185;-64
2022/03/11 04:36:06;;;;;;;14.80;5.20;;;-2.20;90.20;;;;;;5034163;28;20297;-65
2022/03/11 04:38:33;;;;;;;15.37;7.20;;;-2.30;90.20;;;;;;5042118;28;21018;-62
2022/03/11 04:40:59;;;;;;;18.83;6.53;;;-2.30;90.60;;;;;;5032471;28;20862;-63
2022/03/11 04:43:24;;;;;;;23.50;6.87;;;-2.30;90.70;;;;;;5040654;28;20512;-65
2022/03/11 04:45:50;;;;;;;15.37;7.40;;;-2.30;90.60;;;;;;5034224;28;20482;-64
2022/03/11 04:48:16;;;;;;;16.17;7.63;;;-2.20;90.90;;;;;;5024848;28;20312;-64
2022/03/11 04:50:42;;;;;;;23.23;6.47;;;-2.20;90.90;;;;;;5045870;28;20196;-63
2022/03/11 04:53:08;;;;;;;21.80;7.30;;;-2.20;90.70;;;;;;5045265;28;20675;-64
2022/03/11 04:55:34;;;;;;;17.10;6.00;;;-2.30;90.50;;;;;;5039794;28;20464;-65
2022/03/11 04:57:59;;;;;;;10.20;5.77;;;-2.40;90.70;;;;;;5043213;28;20490;-64
2022/03/11 05:00:25;;;;;;;15.30;5.03;;;-2.30;90.80;;;;;;5037959;28;20867;-65
2022/03/11 05:02:52;;;;;;;12.53;6.67;;;-2.30;90.70;;;;;;5042089;28;20196;-65
2022/03/11 05:05:18;;;;;;;14.10;6.47;;;-2.30;90.70;;;;;;5038860;28;20329;-64
2022/03/11 05:07:44;;;;;;;13.90;5.97;;;-2.30;90.30;;;;;;5034766;28;20540;-65
2022/03/11 05:10:11;;;;;;;15.13;6.30;;;-2.40;90.10;;;;;;5031886;28;20413;-64
2022/03/11 05:12:37;;;;;;;15.30;6.53;;;-2.50;90.20;;;;;;5037658;28;20504;-63
2022/03/11 05:15:05;;;;;;;12.80;6.00;;;-2.60;90.40;;;;;;5034896;28;20438;-67
2022/03/11 05:17:31;;;;;;;14.93;6.10;;;-2.60;90.40;;;;;;5038420;28;20498;-64
2022/03/11 05:19:56;;;;;;;11.17;5.97;;;-2.70;90.30;;;;;;5033542;28;20491;-64
2022/03/11 05:22:22;;;;;;;14.33;5.83;;;-2.70;90.30;;;;;;5036712;28;20186;-63
2022/03/11 05:24:48;;;;;;;13.80;6.07;;;-2.60;90.10;;;;;;5038551;28;20255;-64
2022/03/11 05:27:13;;;;;;;19.40;7.17;;;-2.60;90.00;;;;;;5036250;28;20206;-62
2022/03/11 05:29:40;;;;;;;15.17;6.77;;;-2.60;90.10;;;;;;5040581;28;20218;-63
2022/03/11 05:32:07;;;;;;;16.40;6.23;;;-2.70;90.00;;;;;;5043040;28;21006;-63
2022/03/11 05:34:34;;;;;;;11.10;5.60;;;-2.70;90.40;;;;;;5040642;28;20440;-64
2022/03/11 05:37:00;;;;;;;19.93;7.60;;;-2.70;90.60;;;;;;5036219;28;20472;-64
2022/03/11 05:39:25;;;;;;;24.27;8.67;;;-2.70;90.60;;;;;;5037185;28;20440;-65
2022/03/11 05:41:51;;;;;;;15.70;7.27;;;-2.70;90.60;;;;;;5039228;28;20212;-63
2022/03/11 05:44:17;;;;;;;16.73;6.33;;;-2.70;90.50;;;;;;5037749;28;20186;-64
2022/03/11 05:46:44;;;;;;;19.53;7.30;;;-2.80;90.70;;;;;;5029297;28;20198;-64
2022/03/11 05:49:10;;;;;;;13.90;6.30;;;-2.80;90.90;;;;;;5035702;28;20721;-63
2022/03/11 05:51:37;;;;;;;16.20;7.10;;;-2.80;90.90;;;;;;5045353;28;20463;-63
2022/03/11 05:54:03;;;;;;;12.90;6.40;;;-2.70;91.00;;;;;;5046109;28;20750;-64
2022/03/11 05:56:29;;;;;;;14.10;6.33;;;-2.70;91.00;;;;;;5044613;28;20464;-63
2022/03/11 05:58:54;;;;;;;19.47;7.77;;;-2.70;91.10;;;;;;5018239;28;20456;-63
2022/03/11 06:01:20;;;;;;;20.00;8.00;;;-2.60;91.00;;;;;;5036815;28;20202;-64
2022/03/11 06:03:46;;;;;;;18.03;7.30;;;-2.70;90.70;;;;;;5038813;28;20240;-63
2022/03/11 06:06:14;;;;;;;15.07;7.00;;;-2.80;90.80;;;;;;5036017;28;20197;-63
2022/03/11 06:08:39;;;;;;;11.20;5.57;;;-2.70;91.30;;;;;;5043160;28;20457;-64
2022/03/11 06:11:06;;;;;;;14.60;7.03;;;-2.70;91.30;;;;;;5034567;28;20424;-64
2022/03/11 06:13:32;;;;;;;13.00;5.67;;;-2.70;91.10;;;;;;5010408;28;20444;-64
2022/03/11 06:15:58;;;;;;;19.07;6.77;;;-2.70;91.20;;;;;;5026026;28;20469;-64
2022/03/11 06:18:23;;;;;;;16.97;6.70;;;-2.60;91.30;;;;;;5031478;28;20480;-63
2022/03/11 06:20:49;;;;;;;14.47;7.00;;;-2.60;91.20;;;;;;5043496;28;20192;-64
2022/03/11 06:23:15;;;;;;;32.73;8.43;;;-2.60;90.80;;;;;;5041532;28;20189;-64
2022/03/11 06:25:42;;;;;;;17.63;6.30;;;-2.60;91.00;;;;;;5041034;28;20552;-64
2022/03/11 06:28:08;;;;;;;19.83;7.83;;;-2.60;91.10;;;;;;5034916;28;20205;-64
2022/03/11 06:30:34;;;;;;;12.43;5.27;;;-2.60;91.10;;;;;;5042214;28;20426;-62
2022/03/11 06:33:00;;;;;;;14.30;7.30;;;-2.60;91.10;;;;;;5040578;28;20428;-63
2022/03/11 06:35:25;;;;;;;19.70;7.23;;;-2.60;91.00;;;;;;5029714;28;20245;-64
2022/03/11 06:37:51;;;;;;;17.57;7.03;;;-2.60;91.20;;;;;;5039503;28;20201;-64
2022/03/11 06:40:18;;;;;;;13.07;6.60;;;-2.50;91.20;;;;;;5038603;28;20290;-65
2022/03/11 06:42:45;;;;;;;15.30;7.67;;;-2.40;91.20;;;;;;5038149;28;20699;-64
2022/03/11 06:45:13;;;;;;;14.23;7.10;;;-2.40;91.10;;;;;;5025250;28;20428;-64
2022/03/11 06:47:40;;;;;;;17.07;7.47;;;-2.30;91.30;;;;;;5031787;28;21218;-64
2022/03/11 06:50:06;;;;;;;19.63;7.87;;;-2.30;91.30;;;;;;5025902;28;20515;-65
2022/03/11 06:52:33;;;;;;;23.67;8.77;;;-2.10;91.50;;;;;;5024193;28;20527;-65
2022/03/11 06:54:59;;;;;;;18.73;8.40;;;-2.00;91.60;;;;;;5033994;28;20459;-65
2022/03/11 06:57:25;;;;;;;25.23;9.43;;;-1.60;91.90;;;;;;5029811;28;20478;-65
2022/03/11 06:59:50;;;;;;;17.20;8.90;;;-1.50;91.90;;;;;;5036030;28;20432;-65
2022/03/11 07:02:17;;;;;;;23.73;7.90;;;-1.30;91.70;;;;;;5030454;28;20178;-65
2022/03/11 07:04:43;;;;;;;19.37;8.30;;;-1.00;91.60;;;;;;5025640;28;20186;-64
2022/03/11 07:07:09;;;;;;;23.73;8.90;;;-0.70;91.20;;;;;;5036407;28;20931;-65
2022/03/11 07:09:35;;;;;;;22.47;9.00;;;-0.50;90.60;;;;;;5036553;28;20209;-63
2022/03/11 07:12:03;;;;;;;20.90;8.30;;;-0.20;90.40;;;;;;5034944;28;20441;-63
2022/03/11 07:14:30;;;;;;;21.33;8.17;;;0.10;89.50;;;;;;5019498;28;21003;-65
2022/03/11 07:16:56;;;;;;;23.63;8.83;;;0.40;87.80;;;;;;5039521;28;20470;-65
2022/03/11 07:19:23;;;;;;;15.27;7.67;;;0.70;86.80;;;;;;5040242;28;20475;-64
2022/03/11 07:21:48;;;;;;;15.07;6.77;;;1.00;86.00;;;;;;5033345;28;20423;-64
2022/03/11 07:24:14;;;;;;;18.07;6.90;;;1.20;84.90;;;;;;5038755;28;20408;-64
2022/03/11 07:26:40;;;;;;;15.33;6.77;;;1.40;84.10;;;;;;5037741;28;20185;-65
2022/03/11 07:29:05;;;;;;;18.07;8.57;;;1.70;83.50;;;;;;5037237;28;20271;-65
2022/03/11 07:31:32;;;;;;;18.77;7.57;;;1.90;83.10;;;;;;5036853;28;20907;-64
2022/03/11 07:33:58;;;;;;;14.17;7.80;;;2.20;81.80;;;;;;5033871;28;20274;-65
2022/03/11 07:36:24;;;;;;;14.97;6.50;;;2.40;81.60;;;;;;5030062;28;20469;-65
2022/03/11 07:38:50;;;;;;;14.33;7.40;;;2.70;81.20;;;;;;5024930;28;20956;-63
2022/03/11 07:41:16;;;;;;;14.40;6.57;;;3.10;80.10;;;;;;5033803;28;20482;-65
2022/03/11 07:43:44;;;;;;;17.37;7.90;;;4.00;80.60;;;;;;5035907;28;20670;-64
2022/03/11 07:46:21;;;;;;;17.73;7.10;;;4.90;74.90;;;;;;5040004;28;20547;-63
2022/03/11 07:48:46;;;;;;;20.20;8.83;;;5.70;72.90;;;;;;5046149;28;20510;-65
2022/03/11 07:51:12;;;;;;;23.70;8.00;;;6.30;70.50;;;;;;5031015;28;20425;-65
2022/03/11 07:53:38;;;;;;;20.77;8.97;;;6.70;69.90;;;;;;5036537;28;20197;-65
2022/03/11 07:56:05;;;;;;;19.40;8.50;;;7.30;67.80;;;;;;5040268;28;20216;-65
2022/03/11 07:58:30;;;;;;;19.60;8.37;;;7.90;65.50;;;;;;5041316;28;21195;-65
2022/03/11 08:00:56;;;;;;;16.40;7.50;;;8.20;64.60;;;;;;5031650;28;20570;-66
2022/03/11 08:03:22;;;;;;;15.33;6.80;;;8.50;63.50;;;;;;5012595;28;20280;-65
2022/03/11 08:05:48;;;;;;;17.13;7.50;;;8.20;63.90;;;;;;5031349;28;20189;-66
2022/03/11 08:08:14;;;;;;;19.90;8.73;;;8.30;63.70;;;;;;5033531;28;20959;-64
2022/03/11 08:10:39;;;;;;;23.87;7.80;;;9.20;62.00;;;;;;5032015;28;20182;-65
2022/03/11 08:13:09;;;;;;;12.77;6.47;;;9.50;60.00;;;;;;5026818;28;20218;-65
2022/03/11 08:15:35;;;;;;;14.33;5.47;;;8.70;59.90;;;;;;5032252;28;20232;-66
2022/03/11 08:18:03;;;;;;;11.73;6.33;;;9.00;61.60;;;;;;5034728;28;20452;-64
2022/03/11 08:20:30;;;;;;;14.13;6.73;;;9.40;59.00;;;;;;5024004;28;20455;-66
2022/03/11 08:22:56;;;;;;;16.30;7.43;;;9.20;60.50;;;;;;5022060;28;20500;-65
2022/03/11 08:25:26;;;;;;;19.03;7.90;;;9.30;59.70;;;;;;5033430;28;20531;-66
2022/03/11 08:27:53;;;;;;;14.30;7.40;;;9.70;59.80;;;;;;5014166;28;20476;-65
2022/03/11 08:30:19;;;;;;;18.17;8.03;;;9.70;59.20;;;;;;5032821;28;20425;-64
2022/03/11 08:32:45;;;;;;;14.80;6.83;;;9.50;59.20;;;;;;5037559;28;20551;-65
2022/03/11 08:35:11;;;;;;;17.03;8.20;;;9.80;59.30;;;;;;5031034;28;20457;-65
2022/03/11 08:37:37;;;;;;;15.20;6.93;;;9.70;59.40;;;;;;5039335;28;21170;-66
2022/03/11 08:40:05;;;;;;;17.00;7.60;;;9.60;58.90;;;;;;5035979;28;20191;-67
2022/03/11 08:42:32;;;;;;;20.13;8.23;;;9.20;59.40;;;;;;5027654;28;20875;-66
2022/03/11 08:45:00;;;;;;;15.93;6.83;;;8.70;60.10;;;;;;5030431;28;20791;-66
2022/03/11 08:47:26;;;;;;;12.33;5.60;;;8.90;61.00;;;;;;5038563;28;20940;-65
2022/03/11 08:49:52;;;;;;;11.50;6.50;;;9.40;60.70;;;;;;5036403;28;20436;-63
2022/03/11 08:52:19;;;;;;;21.40;6.80;;;10.10;58.30;;;;;;5023898;28;20446;-65
2022/03/11 08:54:45;;;;;;;14.50;7.20;;;10.30;56.70;;;;;;5031897;28;20999;-66
2022/03/11 08:57:11;;;;;;;13.97;5.60;;;10.10;57.80;;;;;;5021750;28;20483;-66
2022/03/11 08:59:37;;;;;;;16.63;8.27;;;10.40;57.30;;;;;;5021735;28;20771;-66
2022/03/11 09:02:06;;;;;;;14.03;6.10;;;9.90;58.40;;;;;;5031620;28;20690;-66
2022/03/11 09:04:33;;;;;;;10.87;6.43;;;9.80;58.90;;;;;;5033171;28;20289;-66
2022/03/11 09:06:59;;;;;;;15.33;7.57;;;10.00;57.50;;;;;;5027927;28;20439;-65
2022/03/11 09:09:24;;;;;;;20.23;7.10;;;9.80;58.50;;;;;;5028542;28;20456;-67
2022/03/11 09:11:50;;;;;;;15.67;6.70;;;9.70;57.90;;;;;;5035946;28;20197;-65
2022/03/11 09:14:16;;;;;;;16.53;6.73;;;10.00;57.60;;;;;;5030924;28;20566;-66
2022/03/11 09:16:42;;;;;;;20.33;7.43;;;10.10;56.60;;;;;;5034716;28;20209;-66
2022/03/11 09:19:08;;;;;;;14.27;7.43;;;9.60;58.10;;;;;;5029357;28;20460;-66
2022/03/11 09:21:34;;;;;;;21.70;5.70;;;9.50;58.10;;;;;;5032491;28;20611;-65
2022/03/11 09:24:00;;;;;;;16.93;6.83;;;9.00;58.60;;;;;;5033068;28;21295;-66
2022/03/11 09:26:26;;;;;;;13.40;5.50;;;8.70;59.40;;;;;;5024493;28;20657;-65
2022/03/11 09:28:51;;;;;;;23.50;6.70;;;8.50;60.10;;;;;;5025191;28;20205;-66
2022/03/11 09:31:17;;;;;;;15.43;6.20;;;8.70;59.50;;;;;;5027151;28;20424;-66
2022/03/11 09:33:43;;;;;;;20.50;6.60;;;9.00;59.40;;;;;;5029394;28;20194;-66
2022/03/11 09:36:09;;;;;;;8.43;5.60;;;9.20;58.00;;;;;;5028474;28;20202;-64
2022/03/11 09:38:38;;;;;;;14.17;6.10;;;8.80;58.60;;;;;;5023820;28;20206;-65
2022/03/11 09:41:05;;;;;;;11.17;6.10;;;8.50;58.90;;;;;;5021421;28;20417;-64
2022/03/11 09:43:31;;;;;;;14.93;6.30;;;8.40;59.40;;;;;;5006554;28;20453;-65
2022/03/11 09:45:58;;;;;;;13.73;6.80;;;8.60;59.80;;;;;;5024185;28;20427;-66
2022/03/11 09:48:24;;;;;;;17.23;6.90;;;8.60;59.20;;;;;;5022068;28;20441;-66
2022/03/11 09:50:51;;;;;;;12.10;5.73;;;8.90;59.30;;;;;;5025606;28;20516;-67
2022/03/11 09:53:17;;;;;;;14.67;6.23;;;8.60;59.20;;;;;;5025185;28;20476;-66
2022/03/11 09:55:44;;;;;;;10.73;5.63;;;8.50;59.70;;;;;;5022985;28;20425;-64
2022/03/11 09:58:10;;;;;;;14.13;6.33;;;8.60;59.30;;;;;;5025910;28;20527;-66
2022/03/11 10:00:36;;;;;;;24.13;6.77;;;8.70;59.70;;;;;;5024941;28;20443;-65
2022/03/11 10:03:02;;;;;;;13.50;5.63;;;8.40;60.80;;;;;;5024519;28;20802;-65
2022/03/11 10:05:50;;;;;;;19.53;6.13;;;8.50;59.60;;;;;;5026040;28;20444;-66
2022/03/11 10:08:30;;;;;;;10.30;6.50;;;8.40;60.20;;;;;;5024204;28;20499;-66
2022/03/11 10:10:59;;;;;;;16.57;6.07;;;8.40;60.00;;;;;;5028085;28;20919;-64
2022/03/11 10:13:36;;;;;;;16.03;6.50;;;8.40;60.20;;;;;;5026349;28;20488;-64
2022/03/11 10:16:19;;;;;;;12.53;6.30;;;8.70;59.40;;;;;;5024788;28;20456;-66
2022/03/11 10:18:55;;;;;;;21.10;6.50;;;8.70;59.70;;;;;;5004940;28;20444;-66
2022/03/11 10:21:29;;;;;;;8.80;4.87;;;8.80;59.60;;;;;;5023191;28;20428;-65
2022/03/11 10:23:54;;;;;;;12.80;6.17;;;8.90;59.10;;;;;;5023309;28;20429;-65
2022/03/11 10:26:40;;;;;;;14.10;5.90;;;9.10;59.20;;;;;;5030073;28;20459;-63
2022/03/11 10:29:08;;;;;;;19.47;7.00;;;9.10;59.20;;;;;;5022070;28;20245;-65
2022/03/11 10:31:36;;;;;;;33.33;7.47;;;9.30;58.50;;;;;;5009205;28;20436;-65
2022/03/11 10:34:20;;;;;;;13.03;6.43;;;9.20;59.30;;;;;;5027685;28;20534;-66
2022/03/11 10:36:54;;;;;;;14.77;6.03;;;9.40;59.40;;;;;;5027152;28;20467;-65
2022/03/11 10:39:19;;;;;;;12.67;5.80;;;9.40;58.80;;;;;;5027111;28;21002;-65
2022/03/11 10:41:46;;;;;;;11.23;5.63;;;9.50;59.00;;;;;;5022071;28;20437;-66
2022/03/11 10:44:12;;;;;;;10.33;6.00;;;9.20;59.50;;;;;;5025985;28;20185;-64
2022/03/11 10:46:39;;;;;;;22.47;7.70;;;9.40;59.10;;;;;;5026884;28;20421;-64
2022/03/11 10:49:04;;;;;;;9.20;4.90;;;9.60;59.00;;;;;;5027259;28;20261;-67
2022/03/11 10:51:32;;;;;;;18.40;7.13;;;9.60;58.50;;;;;;5026899;28;20438;-66
2022/03/11 10:54:04;;;;;;;9.80;5.30;;;9.60;58.40;;;;;;5029985;28;20204;-66
2022/03/11 10:56:33;;;;;;;12.00;5.90;;;9.70;58.80;;;;;;5013748;28;20471;-65
2022/03/11 10:58:59;;;;;;;13.47;5.83;;;9.70;58.30;;;;;;5026895;28;20444;-66
2022/03/11 11:01:42;;;;;;;13.47;6.57;;;9.70;58.20;;;;;;5019940;28;20460;-66
2022/03/11 11:04:09;;;;;;;13.60;6.60;;;9.90;58.10;;;;;;5031389;28;20924;-64
2022/03/11 11:06:36;;;;;;;14.93;5.73;;;10.10;57.30;;;;;;5025836;28;20429;-66
2022/03/11 11:09:04;;;;;;;16.00;5.40;;;10.20;56.30;;;;;;5029040;28;20533;-65
2022/03/11 11:11:30;;;;;;;14.27;5.57;;;10.40;56.30;;;;;;5025037;28;20431;-65
2022/03/11 11:13:58;;;;;;;8.50;4.70;;;10.50;55.70;;;;;;5031432;28;20421;-66
2022/03/11 11:16:27;;;;;;;13.67;6.23;;;10.50;56.10;;;;;;5027524;28;20448;-66
2022/03/11 11:18:58;;;;;;;11.03;5.50;;;10.60;55.90;;;;;;5033448;28;20437;-64
2022/03/11 11:21:25;;;;;;;12.13;5.40;;;10.90;55.00;;;;;;5033214;28;20409;-65
2022/03/11 11:24:00;;;;;;;10.83;4.77;;;10.80;54.90;;;;;;5031439;28;20548;-65
2022/03/11 11:26:26;;;;;;;11.07;5.10;;;10.80;55.60;;;;;;5027764;28;20417;-66
2022/03/11 11:28:59;;;;;;;10.30;4.63;;;10.90;55.60;;;;;;5029686;28;20535;-66
2022/03/11 11:31:25;;;;;;;18.53;6.33;;;11.10;54.90;;;;;;5016781;28;20527;-66
2022/03/11 11:33:51;;;;;;;19.03;6.07;;;11.30;54.60;;;;;;5025365;28;20459;-65
2022/03/11 11:36:36;;;;;;;19.27;6.60;;;11.40;53.90;;;;;;5044324;28;20451;-66
2022/03/11 11:39:11;;;;;;;15.47;5.93;;;11.50;54.00;;;;;;5032968;28;21017;-66
2022/03/11 11:41:37;;;;;;;15.90;5.60;;;11.50;54.20;;;;;;5013321;28;20454;-65
2022/03/11 11:44:08;;;;;;;12.50;5.90;;;11.70;53.30;;;;;;5029625;28;20424;-65
2022/03/11 11:46:37;;;;;;;12.23;4.70;;;11.60;54.30;;;;;;5033089;28;20292;-66
2022/03/11 11:49:04;;;;;;;13.83;6.20;;;11.70;53.20;;;;;;5040285;28;21065;-66
2022/03/11 11:51:32;;;;;;;14.73;5.47;;;11.70;54.00;;;;;;5025689;28;20414;-66
2022/03/11 11:54:09;;;;;;;11.73;6.00;;;11.80;53.30;;;;;;5037097;28;20506;-66
2022/03/11 11:56:34;;;;;;;12.53;5.37;;;12.20;52.90;;;;;;5035784;28;20503;-65
2022/03/11 11:59:10;;;;;;;13.10;5.10;;;12.30;52.10;;;;;;5034826;28;20802;-66
2022/03/11 12:01:39;;;;;;;8.30;3.97;;;12.50;52.10;;;;;;5030358;28;20178;-65
2022/03/11 12:04:22;;;;;;;12.33;5.40;;;12.50;51.60;;;;;;5033923;28;20958;-66
2022/03/11 12:07:02;;;;;;;12.50;5.37;;;12.50;51.60;;;;;;5026291;28;20428;-66
2022/03/11 12:09:42;;;;;;;10.27;5.03;;;12.40;52.30;;;;;;5033625;28;20827;-66
2022/03/11 12:12:20;;;;;;;10.00;4.87;;;12.60;52.10;;;;;;5037205;28;20411;-66
2022/03/11 12:15:01;;;;;;;11.37;4.20;;;12.90;52.10;;;;;;5039861;28;20498;-66
2022/03/11 12:17:39;;;;;;;9.47;4.87;;;13.10;51.10;;;;;;5035882;28;20465;-66
2022/03/11 12:20:39;;;;;;;12.30;4.90;;;13.10;50.70;;;;;;5038882;28;20420;-65
2022/03/11 12:23:24;;;;;;;8.97;3.37;;;13.00;50.70;;;;;;5034750;28;20416;-66
2022/03/11 12:26:02;;;;;;;14.27;4.73;;;12.80;51.10;;;;;;5042065;28;20773;-67
2022/03/11 12:28:27;;;;;;;9.20;4.67;;;12.90;51.10;;;;;;5035614;28;20428;-67
2022/03/11 12:31:24;;;;;;;14.13;4.20;;;13.10;50.80;;;;;;5034146;28;20428;-67
2022/03/11 12:33:51;;;;;;;10.50;4.50;;;13.20;50.50;;;;;;5032581;28;20209;-65
2022/03/11 12:36:28;;;;;;;11.03;4.67;;;13.20;50.60;;;;;;5029703;28;21370;-65
2022/03/11 12:38:54;;;;;;;7.43;4.27;;;13.20;50.80;;;;;;5033061;28;20456;-66
2022/03/11 12:41:25;;;;;;;12.30;4.60;;;13.30;49.90;;;;;;5025791;28;20539;-65
2022/03/11 12:43:51;;;;;;;8.87;4.50;;;13.30;50.30;;;;;;5032960;28;20707;-66